Time;durP1;ratioP1;P1;durP2;ratioP2;P2;SDS_P1;SDS_P2;PMS_P1;PMS_P2;Temp;Humidity;BMP_temperature;BMP_pressure;BME280_temperature;BME280_humidity;BME280_pressure;Samples;Min_cycle;Max_cycle;Signal;HPM_P1;HPM_P2
2022/06/12 00:02:16;;;;;;;;;30.00;29.50;;;;;23.36;52.50;101312.11;110314;1265;22223;-48
2022/06/12 00:04:44;;;;;;;;;28.00;25.67;;;;;23.35;52.43;101313.32;110302;1264;18810;-48
2022/06/12 00:07:11;;;;;;;;;28.00;27.00;;;;;23.34;52.30;101309.77;110292;1265;23791;-47
2022/06/12 00:09:38;;;;;;;;;25.00;25.00;;;;;23.31;52.33;101307.29;110264;1265;18741;-48
2022/06/12 00:12:06;;;;;;;;;28.00;27.50;;;;;23.28;52.22;101303.45;110324;1265;18790;-47
2022/06/12 00:14:33;;;;;;;;;29.00;28.50;;;;;23.29;52.21;101299.39;110280;1264;19749;-48
2022/06/12 00:17:00;;;;;;;;;32.33;28.33;;;;;23.26;52.11;101298.92;110337;1265;18848;-48
2022/06/12 00:19:30;;;;;;;;;24.00;23.00;;;;;23.27;52.21;101303.21;110317;1265;22581;-48
2022/06/12 00:21:57;;;;;;;;;27.33;26.00;;;;;23.30;52.16;101301.73;110271;1264;19818;-48
2022/06/12 00:24:24;;;;;;;;;27.00;25.00;;;;;23.30;52.01;101301.86;110235;1265;18698;-47
2022/06/12 00:26:51;;;;;;;;;27.33;25.00;;;;;23.32;52.00;101297.89;110147;1264;18924;-50
2022/06/12 00:29:19;;;;;;;;;25.00;21.33;;;;;23.32;51.96;101297.64;110268;1264;22028;-48
2022/06/12 00:31:46;;;;;;;;;28.67;28.33;;;;;23.27;51.75;101295.48;110309;1265;19402;-47
2022/06/12 00:34:13;;;;;;;;;24.00;23.67;;;;;23.29;51.83;101300.27;110281;1264;18822;-46
2022/06/12 00:36:40;;;;;;;;;28.00;27.67;;;;;23.28;51.86;101295.72;110276;1265;19625;-48
2022/06/12 00:39:08;;;;;;;;;25.00;23.00;;;;;23.25;51.91;101292.13;110294;1265;19165;-48
2022/06/12 00:41:35;;;;;;;;;25.67;25.00;;;;;23.24;51.99;101292.05;110301;1264;19003;-48
2022/06/12 00:44:03;;;;;;;;;24.67;24.33;;;;;23.26;51.87;101292.39;110303;1265;19554;-48
2022/06/12 00:46:31;;;;;;;;;25.00;24.33;;;;;23.22;51.94;101289.16;110298;1265;18735;-48
2022/06/12 00:48:58;;;;;;;;;27.00;26.67;;;;;23.15;51.89;101290.11;110282;1265;18791;-48
2022/06/12 00:51:25;;;;;;;;;28.00;25.00;;;;;23.19;51.99;101294.23;110280;1264;19646;-46
2022/06/12 00:53:53;;;;;;;;;25.50;24.50;;;;;23.25;52.05;101297.54;110274;1264;20425;-47
2022/06/12 00:56:20;;;;;;;;;26.00;24.00;;;;;23.39;51.62;101338.98;110279;1264;18981;-48
2022/06/12 00:58:47;;;;;;;;;23.67;23.33;;;;;23.42;51.57;101320.73;110336;1265;19497;-48
2022/06/12 01:01:15;;;;;;;;;27.33;24.67;;;;;23.44;51.58;101329.02;110275;1264;18686;-48
2022/06/12 01:06:35;;;;;;;;;24.00;23.67;;;;;23.43;52.00;101316.92;110292;1264;19673;-46
2022/06/12 01:09:03;;;;;;;;;25.67;24.67;;;;;23.47;52.11;101316.88;110286;1264;18886;-48
2022/06/12 01:11:30;;;;;;;;;27.33;24.67;;;;;23.47;52.16;101315.33;110286;1264;18941;-48
2022/06/12 01:13:57;;;;;;;;;24.67;24.00;;;;;23.48;52.13;101305.45;110286;1265;22104;-48
2022/06/12 01:16:25;;;;;;;;;28.00;27.00;;;;;23.40;52.43;101301.25;110285;1264;18769;-47
2022/06/12 01:18:52;;;;;;;;;25.00;24.67;;;;;23.37;52.63;101301.58;110265;1264;19105;-48
2022/06/12 01:21:19;;;;;;;;;28.50;26.50;;;;;23.38;52.60;101299.50;110278;1264;19490;-47
2022/06/12 01:23:47;;;;;;;;;29.33;28.00;;;;;23.40;52.55;101299.64;110277;1265;22295;-46
2022/06/12 01:26:14;;;;;;;;;25.00;24.33;;;;;23.44;52.70;101301.53;110281;1264;18819;-48
2022/06/12 01:28:41;;;;;;;;;26.00;25.33;;;;;23.46;52.58;101296.66;110268;1264;19628;-47
2022/06/12 01:31:08;;;;;;;;;25.00;25.00;;;;;23.42;52.68;101293.85;110274;1264;22338;-47
2022/06/12 01:33:36;;;;;;;;;28.67;27.67;;;;;23.40;52.87;101293.55;110265;1264;20145;-49
2022/06/12 01:36:03;;;;;;;;;24.33;24.00;;;;;23.41;52.83;101291.77;110258;1264;19630;-46
2022/06/12 01:38:31;;;;;;;;;30.33;28.33;;;;;23.42;52.92;101290.64;110286;1264;18732;-48
2022/06/12 01:40:58;;;;;;;;;30.33;29.00;;;;;23.42;52.98;101289.10;110259;1264;18871;-48
2022/06/12 01:43:25;;;;;;;;;31.33;30.33;;;;;23.43;52.83;101284.79;110284;1264;19667;-48
2022/06/12 01:45:53;;;;;;;;;27.00;27.00;;;;;23.41;53.07;101287.77;110263;1264;18816;-48
2022/06/12 01:48:21;;;;;;;;;27.67;27.33;;;;;23.40;53.01;101285.17;110280;1264;18673;-48
2022/06/12 01:50:48;;;;;;;;;27.67;27.67;;;;;23.40;53.10;101281.92;110272;1265;22686;-48
2022/06/12 01:53:15;;;;;;;;;29.00;27.50;;;;;23.40;53.24;101283.32;110281;1264;18842;-48
2022/06/12 01:55:43;;;;;;;;;28.67;28.67;;;;;23.40;53.17;101281.14;110263;1264;19128;-48
2022/06/12 01:58:10;;;;;;;;;25.00;24.00;;;;;23.41;53.24;101282.88;110246;1264;19834;-47
2022/06/12 02:00:38;;;;;;;;;33.33;31.33;;;;;23.40;53.29;101282.81;110262;1265;22249;-48
2022/06/12 02:03:05;;;;;;;;;29.00;27.33;;;;;23.43;53.27;101285.23;110281;1264;18998;-47
2022/06/12 02:05:32;;;;;;;;;29.33;29.33;;;;;23.42;53.33;101286.16;110186;1265;19461;-48
2022/06/12 02:08:00;;;;;;;;;27.33;26.67;;;;;23.42;53.37;101283.46;110289;1265;19105;-47
2022/06/12 02:10:28;;;;;;;;;28.33;27.67;;;;;23.45;53.30;101289.36;110196;1265;18987;-48
2022/06/12 02:13:14;;;;;;;;;30.00;27.67;;;;;23.52;53.31;101287.86;110240;1264;19674;-48
2022/06/12 02:15:42;;;;;;;;;30.00;29.00;;;;;23.51;53.25;101288.08;110240;1265;18920;-48
2022/06/12 02:18:10;;;;;;;;;31.33;28.00;;;;;23.48;53.37;101286.83;110264;1264;18838;-47
2022/06/12 02:20:37;;;;;;;;;33.00;28.67;;;;;23.45;53.55;101287.47;110254;1265;19762;-48
2022/06/12 02:23:05;;;;;;;;;32.00;28.67;;;;;23.48;53.53;101289.20;110289;1264;19038;-48
2022/06/12 02:25:32;;;;;;;;;32.00;29.00;;;;;23.50;53.34;101292.06;110229;1264;18843;-48
2022/06/12 02:28:01;;;;;;;;;32.33;30.33;;;;;23.48;53.47;101287.17;110263;1264;21679;-48
2022/06/12 02:30:28;;;;;;;;;29.00;28.00;;;;;23.44;53.55;101282.72;110216;1264;18716;-47
2022/06/12 02:32:56;;;;;;;;;30.33;28.00;;;;;23.43;53.62;101285.07;110284;1264;20126;-47
2022/06/12 02:35:24;;;;;;;;;30.00;29.00;;;;;23.42;53.84;101285.31;110185;1265;19542;-49
2022/06/12 02:37:51;;;;;;;;;38.50;34.00;;;;;23.41;53.75;101287.84;110286;1264;20392;-48
2022/06/12 02:40:19;;;;;;;;;32.33;29.00;;;;;23.42;53.77;101283.84;110264;1265;19005;-47
2022/06/12 02:42:46;;;;;;;;;31.67;30.67;;;;;23.41;53.92;101289.99;110274;1264;19664;-44
2022/06/12 02:45:14;;;;;;;;;32.67;29.33;;;;;23.44;53.87;101288.92;110171;1265;18801;-48
2022/06/12 02:47:41;;;;;;;;;33.00;33.00;;;;;23.45;53.99;101293.02;110288;1264;18863;-47
2022/06/12 02:50:08;;;;;;;;;53.00;44.00;;;;;23.44;53.89;101294.35;110223;1265;19518;-48
2022/06/12 02:52:36;;;;;;;;;49.00;42.00;;;;;23.41;53.83;101293.07;110249;1264;18743;-48
2022/06/12 02:55:03;;;;;;;;;43.00;38.00;;;;;23.34;54.01;101292.54;110281;1264;18936;-47
2022/06/12 02:57:30;;;;;;;;;49.33;42.33;;;;;23.27;54.18;101290.44;110287;1265;19626;-47
2022/06/12 02:59:57;;;;;;;;;44.67;41.33;;;;;23.23;54.30;101296.91;110267;1264;18746;-48
2022/06/12 03:02:25;;;;;;;;;44.33;37.67;;;;;23.17;54.47;101295.38;110322;1265;18803;-49
2022/06/12 03:04:52;;;;;;;;;39.67;37.33;;;;;23.08;54.76;101297.92;110289;1264;22958;-49
2022/06/12 03:07:19;;;;;;;;;41.00;38.00;;;;;22.98;55.14;101303.30;110269;1265;18735;-46
2022/06/12 03:09:47;;;;;;;;;37.00;37.00;;;;;23.00;55.16;101306.20;110293;1264;18965;-45
2022/06/12 03:12:14;;;;;;;;;76.33;58.00;;;;;23.03;55.16;101310.21;110282;1264;19629;-47
2022/06/12 03:14:42;;;;;;;;;66.00;51.00;;;;;23.03;55.20;101308.71;110275;1265;18825;-47
2022/06/12 03:17:09;;;;;;;;;54.00;45.00;;;;;23.00;55.24;101309.24;110337;1264;18801;-49
2022/06/12 03:19:42;;;;;;;;;44.67;41.00;;;;;22.98;55.38;101312.08;110284;1264;19605;-46
2022/06/12 03:22:09;;;;;;;;;48.67;40.00;;;;;22.97;55.29;101315.83;110308;1264;18667;-49
2022/06/12 03:24:37;;;;;;;;;48.00;41.50;;;;;22.97;55.47;101320.36;110217;1264;18979;-48
2022/06/12 03:27:04;;;;;;;;;39.00;37.00;;;;;22.96;55.32;101318.29;110264;1264;19588;-47
2022/06/12 03:29:31;;;;;;;;;49.33;42.00;;;;;22.92;55.31;101315.77;110271;1265;18816;-47
2022/06/12 03:31:58;;;;;;;;;44.67;39.33;;;;;22.89;55.49;101319.23;110321;1265;19053;-47
2022/06/12 03:34:26;;;;;;;;;45.33;41.00;;;;;22.89;55.53;101318.18;110291;1264;22902;-48
2022/06/12 03:36:53;;;;;;;;;44.33;40.67;;;;;22.89;55.54;101321.28;110270;1265;18900;-49
2022/06/12 03:39:20;;;;;;;;;46.67;42.00;;;;;22.90;55.51;101318.41;110326;1264;18826;-48
2022/06/12 03:41:47;;;;;;;;;42.50;41.00;;;;;22.89;55.59;101317.93;110275;1264;19537;-47
2022/06/12 03:44:15;;;;;;;;;42.00;40.00;;;;;22.88;55.57;101319.67;110329;1265;19155;-47
2022/06/12 03:46:42;;;;;;;;;45.33;41.33;;;;;22.84;55.80;101319.46;110275;1264;18926;-48
2022/06/12 03:49:09;;;;;;;;;48.33;41.00;;;;;22.83;55.83;101320.86;110275;1264;19565;-48
2022/06/12 03:51:37;;;;;;;;;41.33;39.00;;;;;22.81;55.88;101322.09;110307;1264;19042;-48
2022/06/12 03:54:04;;;;;;;;;48.67;42.00;;;;;22.80;55.98;101324.84;110303;1265;22149;-47
2022/06/12 03:59:16;;;;;;;;;44.33;41.00;;;;;22.61;56.44;101324.41;110301;1264;18695;-50
2022/06/12 04:01:43;;;;;;;;;46.00;41.00;;;;;22.44;56.84;101331.35;110278;1264;18843;-48
2022/06/12 04:04:11;;;;;;;;;37.50;37.00;;;;;22.36;57.17;101334.91;110332;1264;19506;-49
2022/06/12 04:06:40;;;;;;;;;44.00;39.33;;;;;22.48;56.99;101334.29;110279;1264;18750;-48
2022/06/12 04:09:09;;;;;;;;;42.33;39.00;;;;;22.57;56.81;101329.66;110257;1264;19316;-48
2022/06/12 04:11:36;;;;;;;;;42.00;39.50;;;;;22.63;56.77;101330.73;110309;1264;19599;-48
2022/06/12 04:14:03;;;;;;;;;43.50;41.00;;;;;22.68;56.57;101336.05;110143;1264;22541;-48
2022/06/12 04:16:31;;;;;;;;;44.00;38.67;;;;;22.71;56.61;101339.71;110221;1264;18737;-50
2022/06/12 04:18:58;;;;;;;;;41.33;39.33;;;;;22.73;56.40;101343.55;110258;1264;22730;-48
2022/06/12 04:21:25;;;;;;;;;42.00;39.00;;;;;22.73;56.61;101348.23;110261;1263;18744;-48
2022/06/12 04:23:52;;;;;;;;;45.00;37.00;;;;;22.72;56.61;101343.65;110202;1264;20980;-49
2022/06/12 04:26:20;;;;;;;;;39.67;38.00;;;;;22.73;56.55;101341.33;110152;1264;20173;-51
2022/06/12 04:28:47;;;;;;;;;47.33;41.00;;;;;22.74;56.62;101336.60;110138;1264;18795;-47
2022/06/12 04:31:14;;;;;;;;;41.33;37.33;;;;;22.76;56.76;101332.42;110239;1264;18902;-51
2022/06/12 04:33:41;;;;;;;;;41.00;38.00;;;;;22.77;56.80;101331.88;110276;1265;19540;-49
2022/06/12 04:36:09;;;;;;;;;41.00;38.00;;;;;22.80;56.89;101331.98;110318;1264;22202;-44
2022/06/12 04:38:36;;;;;;;;;41.00;38.00;;;;;22.79;56.67;101335.63;110294;1264;19145;-48
2022/06/12 04:41:04;;;;;;;;;41.00;37.33;;;;;22.79;56.76;101334.58;110327;1265;19515;-48
2022/06/12 04:43:31;;;;;;;;;34.67;32.33;;;;;22.78;56.69;101335.51;110257;1264;18748;-49
2022/06/12 04:45:58;;;;;;;;;37.00;36.00;;;;;22.82;56.86;101336.95;110280;1264;20411;-47
2022/06/12 04:48:26;;;;;;;;;37.00;36.33;;;;;22.87;56.89;101338.45;110229;1264;19600;-49
2022/06/12 04:50:53;;;;;;;;;42.00;38.00;;;;;22.89;56.91;101340.34;110249;1265;18738;-49
2022/06/12 04:53:20;;;;;;;;;36.00;35.00;;;;;22.98;57.00;101343.02;110188;1265;22625;-47
2022/06/12 04:55:48;;;;;;;;;37.00;35.67;;;;;23.07;56.77;101345.40;110270;1264;21705;-46
2022/06/12 04:58:15;;;;;;;;;39.67;37.00;;;;;23.12;56.81;101349.13;110301;1264;18808;-49
2022/06/12 05:00:42;;;;;;;;;35.67;33.67;;;;;23.17;56.71;101347.36;110251;1264;18842;-47
2022/06/12 05:03:12;;;;;;;;;34.00;34.00;;;;;23.12;56.99;101350.80;110287;1264;19939;-48
2022/06/12 05:05:39;;;;;;;;;31.00;29.00;;;;;23.07;57.24;101353.09;110244;1264;18880;-46
2022/06/12 05:08:06;;;;;;;;;36.00;34.00;;;;;23.03;57.26;101350.86;110218;1264;21897;-50
2022/06/12 05:10:34;;;;;;;;;41.50;35.50;;;;;23.03;57.35;101354.14;110231;1265;20077;-47
2022/06/12 05:13:01;;;;;;;;;32.00;31.67;;;;;23.04;57.36;101357.06;110257;1265;18729;-46
2022/06/12 05:15:28;;;;;;;;;32.67;31.00;;;;;23.01;57.67;101357.63;110201;1264;18906;-49
2022/06/12 05:17:55;;;;;;;;;30.50;29.00;;;;;23.12;57.09;101355.98;110260;1265;19460;-47
2022/06/12 05:20:23;;;;;;;;;35.67;32.67;;;;;23.29;56.61;101357.50;110281;1264;23405;-47
2022/06/12 05:22:50;;;;;;;;;33.00;31.33;;;;;23.41;57.07;101358.24;110150;1264;22802;-46
2022/06/12 05:25:17;;;;;;;;;35.67;32.67;;;;;23.36;57.10;101356.42;110243;1265;19521;-45
2022/06/12 05:27:45;;;;;;;;;27.33;26.33;;;;;23.39;57.90;101356.58;110249;1264;19003;-48
2022/06/12 05:30:13;;;;;;;;;24.00;24.00;;;;;23.47;59.03;101353.88;110257;1264;19830;-49
2022/06/12 05:32:40;;;;;;;;;28.33;27.67;;;;;23.52;59.26;101353.26;110273;1264;19133;-46
2022/06/12 05:35:08;;;;;;;;;28.33;27.33;;;;;23.55;59.63;101351.51;110314;1264;18767;-48
2022/06/12 05:37:35;;;;;;;;;26.00;24.50;;;;;23.58;59.25;101351.60;110275;1265;19201;-47
2022/06/12 05:40:03;;;;;;;;;27.33;25.33;;;;;23.62;59.34;101353.70;110268;1264;19466;-49
2022/06/12 05:42:30;;;;;;;;;25.00;24.50;;;;;23.65;58.61;101356.33;109877;1264;535385;-47
2022/06/12 05:44:57;;;;;;;;;24.67;23.67;;;;;23.64;58.29;101354.83;110281;1264;19009;-48
2022/06/12 05:47:25;;;;;;;;;72.67;58.00;;;;;23.70;58.32;101352.63;110198;1264;19531;-50
2022/06/12 05:49:52;;;;;;;;;4256.00;4256.00;;;;;23.77;57.67;101348.95;110265;1264;18788;-46
2022/06/12 05:52:20;;;;;;;;;4241.33;4241.33;;;;;23.81;57.65;101349.00;110174;1264;19476;-47
2022/06/12 05:54:47;;;;;;;;;4231.00;4231.00;;;;;23.89;57.42;101351.84;110150;1264;23325;-45
2022/06/12 05:57:14;;;;;;;;;4252.25;4252.25;;;;;23.90;57.39;101348.27;110170;1264;22361;-46
2022/06/12 05:59:42;;;;;;;;;240.00;201.33;;;;;23.93;56.93;101349.14;110209;1264;23175;-47
2022/06/12 06:02:09;;;;;;;;;166.00;135.67;;;;;23.92;55.66;101349.05;110314;1264;19993;-49
2022/06/12 06:04:36;;;;;;;;;94.67;75.33;;;;;23.97;54.75;101354.73;110285;1264;22487;-47
2022/06/12 06:07:03;;;;;;;;;91.00;75.00;;;;;24.04;53.94;101360.41;110146;1264;18859;-49
2022/06/12 06:09:31;;;;;;;;;82.67;66.00;;;;;24.06;53.72;101360.78;110276;1264;22929;-48
2022/06/12 06:11:58;;;;;;;;;78.00;61.00;;;;;24.07;53.46;101364.05;110229;1264;18772;-48
2022/06/12 06:14:26;;;;;;;;;66.00;53.00;;;;;24.09;52.88;101362.77;110318;1264;18799;-47
2022/06/12 06:16:53;;;;;;;;;52.33;43.67;;;;;24.12;52.57;101362.23;110282;1265;19424;-47
2022/06/12 06:19:20;;;;;;;;;30.00;30.00;;;;;24.09;51.25;101360.08;110258;1264;18699;-47
2022/06/12 06:21:48;;;;;;;;;31.33;30.67;;;;;24.12;50.77;101361.31;110272;1264;19740;-47
2022/06/12 06:24:15;;;;;;;;;30.50;29.00;;;;;24.16;50.25;101367.23;110279;1264;22276;-47
2022/06/12 06:26:42;;;;;;;;;38.33;30.67;;;;;24.17;50.20;101363.23;110234;1264;18878;-47
2022/06/12 06:29:10;;;;;;;;;30.00;26.33;;;;;24.21;49.83;101364.89;110283;1265;18900;-46
2022/06/12 06:31:37;;;;;;;;;27.33;25.00;;;;;24.24;49.67;101367.33;110256;1264;19454;-48
2022/06/12 06:34:04;;;;;;;;;30.00;26.00;;;;;24.32;49.36;101365.28;110277;1265;19349;-47
2022/06/12 06:36:32;;;;;;;;;22.00;21.33;;;;;24.34;49.66;101367.83;110271;1265;19121;-48
2022/06/12 06:38:59;;;;;;;;;21.00;19.00;;;;;24.33;49.50;101366.47;110227;1264;19541;-47
2022/06/12 06:41:26;;;;;;;;;23.67;21.67;;;;;24.36;48.50;101366.80;110288;1264;18754;-50
2022/06/12 06:46:38;;;;;;;;;19.00;17.00;;;;;24.43;48.69;101370.23;109537;1269;20078;-47
2022/06/12 06:49:05;;;;;;;;;18.33;17.67;;;;;24.48;48.37;101369.16;109583;1268;24510;-48
2022/06/12 06:51:32;;;;;;;;;18.00;18.00;;;;;24.43;48.53;101367.21;109604;1268;19084;-46
2022/06/12 06:54:00;;;;;;;;;15.00;15.00;;;;;24.49;47.87;101365.04;109560;1268;22689;-46
2022/06/12 06:56:27;;;;;;;;;16.67;16.33;;;;;24.47;47.51;101364.71;109728;1268;18730;-50
2022/06/12 06:58:55;;;;;;;;;15.00;15.00;;;;;24.53;46.83;101360.34;109590;1269;19343;-48
2022/06/12 07:01:22;;;;;;;;;16.00;15.00;;;;;24.65;46.72;101362.23;109599;1269;19462;-46
2022/06/12 07:03:53;;;;;;;;;14.00;14.00;;;;;24.65;46.27;101355.79;109559;1268;22806;-48
2022/06/12 07:06:20;;;;;;;;;17.50;17.00;;;;;24.74;46.00;101360.91;109626;1268;19087;-46
2022/06/12 07:08:47;;;;;;;;;23.00;22.00;;;;;24.81;46.28;101363.11;109569;1268;22990;-46
2022/06/12 07:11:14;;;;;;;;;15.50;15.50;;;;;24.83;46.44;101362.16;109874;1268;18821;-47
2022/06/12 07:13:42;;;;;;;;;16.00;15.33;;;;;24.77;46.62;101361.03;109596;1268;19073;-48
2022/06/12 07:16:09;;;;;;;;;23.00;21.00;;;;;24.74;46.24;101362.48;109581;1269;19770;-49
2022/06/12 07:18:36;;;;;;;;;20.00;18.00;;;;;24.76;45.92;101357.21;109521;1268;22180;-44
2022/06/12 07:21:03;;;;;;;;;17.00;16.00;;;;;24.74;45.30;101356.85;109515;1268;18834;-49
2022/06/12 07:23:31;;;;;;;;;14.00;11.67;;;;;24.78;45.47;101352.94;109625;1265;23018;-48
2022/06/12 07:25:58;;;;;;;;;15.67;15.00;;;;;24.79;44.92;101352.60;110108;1264;18728;-45
2022/06/12 07:28:25;;;;;;;;;15.00;12.67;;;;;24.87;44.92;101352.11;109980;1264;19333;-46
2022/06/12 07:30:53;;;;;;;;;13.00;13.00;;;;;24.88;44.86;101354.61;110046;1264;19578;-46
2022/06/12 07:33:20;;;;;;;;;15.00;14.00;;;;;24.86;44.78;101353.58;111980;1263;18987;-47
2022/06/12 07:35:48;;;;;;;;;11.67;11.00;;;;;24.88;44.72;101349.53;110745;1264;22213;-48
2022/06/12 07:38:15;;;;;;;;;33.67;28.33;;;;;24.95;44.76;101348.08;110145;1264;19738;-47
2022/06/12 07:40:42;;;;;;;;;39.00;33.50;;;;;24.97;44.80;101350.31;110245;1264;18753;-47
2022/06/12 07:43:09;;;;;;;;;68.00;50.00;;;;;25.10;44.22;101342.53;110195;1265;19168;-49
2022/06/12 07:45:37;;;;;;;;;58.00;47.50;;;;;25.19;43.82;101338.11;110094;1265;19744;-46
2022/06/12 07:48:04;;;;;;;;;57.67;42.33;;;;;25.21;44.09;101338.05;109971;1265;18871;-46
2022/06/12 07:50:31;;;;;;;;;37.33;31.33;;;;;25.23;43.89;101338.73;110239;1264;18817;-48
2022/06/12 07:52:59;;;;;;;;;28.00;25.33;;;;;25.15;43.06;101337.77;110218;1264;20074;-49
2022/06/12 07:55:27;;;;;;;;;36.00;31.33;;;;;25.20;43.12;101338.02;110235;1264;18768;-46
2022/06/12 07:57:56;;;;;;;;;22.33;21.00;;;;;25.16;43.84;101338.34;110252;1264;18739;-51
2022/06/12 08:00:23;;;;;;;;;21.00;20.00;;;;;25.21;43.68;101336.76;110128;1264;23098;-47
2022/06/12 08:02:51;;;;;;;;;14.33;14.00;;;;;25.15;44.00;101340.11;110122;1265;20405;-48
2022/06/12 08:05:19;;;;;;;;;16.00;14.50;;;;;25.12;44.34;101340.35;110241;1264;19083;-48
2022/06/12 08:07:46;;;;;;;;;13.33;12.33;;;;;25.17;43.78;101335.06;110213;1264;19664;-48
2022/06/12 08:10:13;;;;;;;;;19.50;17.00;;;;;25.22;43.66;101342.34;110300;1265;18831;-46
2022/06/12 08:12:40;;;;;;;;;16.00;13.00;;;;;25.23;43.46;101337.23;110285;1264;21074;-47
2022/06/12 08:15:08;;;;;;;;;13.67;13.00;;;;;25.15;43.13;101341.37;110258;1265;19465;-48
2022/06/12 08:17:35;;;;;;;;;12.33;12.00;;;;;25.11;43.15;101339.89;110307;1264;18700;-48
2022/06/12 08:22:47;;;;;;;;;10.00;10.00;;;;;25.27;42.08;101331.63;110265;1264;19521;-47
2022/06/12 08:25:15;;;;;;;;;11.67;11.00;;;;;24.98;41.60;101330.52;110235;1264;18781;-47
2022/06/12 08:27:42;;;;;;;;;12.00;11.00;;;;;24.95;41.57;101329.05;110237;1264;19101;-47
2022/06/12 08:30:09;;;;;;;;;12.00;12.00;;;;;24.97;41.90;101334.31;110260;1264;22787;-48
2022/06/12 08:32:37;;;;;;;;;12.00;12.00;;;;;25.06;42.31;101337.44;110281;1264;20228;-47
2022/06/12 08:35:04;;;;;;;;;13.67;12.67;;;;;25.09;41.96;101326.23;110269;1264;22704;-49
2022/06/12 08:37:31;;;;;;;;;12.67;11.33;;;;;25.26;41.98;101326.31;110222;1264;19482;-45
2022/06/12 08:39:59;;;;;;;;;46.00;37.67;;;;;25.25;42.29;101328.83;110263;1264;18766;-48
2022/06/12 08:42:27;;;;;;;;;40.50;38.00;;;;;25.34;42.42;101328.09;110161;1264;20257;-43
2022/06/12 08:44:54;;;;;;;;;26.00;22.33;;;;;25.21;42.69;101329.42;110223;1264;22749;-47
2022/06/12 08:47:22;;;;;;;;;27.00;24.00;;;;;25.10;42.74;101330.33;110269;1264;18798;-47
2022/06/12 08:49:50;;;;;;;;;21.67;19.00;;;;;25.24;42.30;101327.98;110220;1264;18805;-48
2022/06/12 08:52:17;;;;;;;;;16.67;16.00;;;;;25.22;42.28;101323.18;110232;1264;19676;-47
2022/06/12 08:54:44;;;;;;;;;16.00;15.50;;;;;25.25;42.73;101326.55;110230;1265;18801;-46
2022/06/12 08:57:12;;;;;;;;;16.67;14.00;;;;;25.43;42.38;101323.05;110251;1264;22408;-47
2022/06/12 08:59:39;;;;;;;;;12.00;11.33;;;;;25.36;42.12;101327.14;110223;1264;19629;-45
2022/06/12 09:02:06;;;;;;;;;15.00;14.00;;;;;25.26;41.74;101323.95;110293;1264;21104;-48
2022/06/12 09:04:33;;;;;;;;;11.00;11.00;;;;;25.30;42.03;101325.46;110242;1264;18945;-48
2022/06/12 09:07:01;;;;;;;;;12.33;12.33;;;;;25.45;42.55;101321.55;110186;1264;19639;-46
2022/06/12 09:09:28;;;;;;;;;11.00;9.67;;;;;25.57;42.74;101317.63;110264;1264;18898;-48
2022/06/12 09:11:55;;;;;;;;;42.33;30.67;;;;;25.75;42.84;101312.04;110082;1264;18955;-45
2022/06/12 09:14:22;;;;;;;;;37.33;33.00;;;;;25.83;42.42;101320.17;109941;1264;19548;-46
2022/06/12 09:16:50;;;;;;;;;37.00;30.33;;;;;25.89;42.04;101317.17;110047;1264;18752;-47
2022/06/12 09:19:17;;;;;;;;;38.50;34.00;;;;;25.85;42.42;101314.35;110174;1264;19011;-48
2022/06/12 09:21:44;;;;;;;;;31.67;27.00;;;;;25.99;43.52;101310.80;110185;1264;22817;-46
2022/06/12 09:24:12;;;;;;;;;24.67;21.67;;;;;26.00;43.91;101311.82;110245;1264;18713;-48
2022/06/12 09:26:40;;;;;;;;;22.33;19.67;;;;;25.98;44.35;101305.80;110064;1265;18825;-49
2022/06/12 09:29:08;;;;;;;;;24.33;20.67;;;;;25.93;44.25;101304.56;110177;1265;19511;-43
2022/06/12 09:31:35;;;;;;;;;17.00;16.00;;;;;25.91;43.76;101301.41;110198;1264;20411;-46
2022/06/12 09:34:04;;;;;;;;;19.00;18.00;;;;;26.02;43.20;101299.96;110189;1264;18793;-49
2022/06/12 09:36:31;;;;;;;;;18.33;14.67;;;;;25.92;43.57;101299.75;110226;1265;21138;-48
2022/06/12 09:38:58;;;;;;;;;15.00;14.67;;;;;25.83;43.92;101299.25;110226;1264;22814;-48
2022/06/12 09:41:25;;;;;;;;;16.00;14.33;;;;;25.78;44.47;101295.55;110076;1265;22477;-46
2022/06/12 09:43:53;;;;;;;;;15.00;14.00;;;;;25.73;44.69;101293.95;110089;1264;19509;-46
2022/06/12 09:46:20;;;;;;;;;16.00;13.50;;;;;25.71;44.74;101291.08;110230;1264;18754;-49
2022/06/12 09:48:47;;;;;;;;;15.33;14.00;;;;;25.68;44.84;101289.31;110226;1264;18923;-46
2022/06/12 09:51:14;;;;;;;;;14.00;14.00;;;;;25.69;44.38;101285.31;110274;1264;19564;-48
2022/06/12 09:53:42;;;;;;;;;14.50;14.50;;;;;25.97;43.93;101282.80;110256;1265;18923;-43
2022/06/12 09:56:09;;;;;;;;;14.00;13.00;;;;;26.21;43.10;101280.62;110276;1264;19196;-45
2022/06/12 09:58:36;;;;;;;;;15.33;14.33;;;;;26.41;42.04;101277.35;110162;1264;19513;-47
2022/06/12 10:01:04;;;;;;;;;12.00;11.33;;;;;26.48;41.97;101276.82;110234;1264;18848;-48
2022/06/12 10:03:32;;;;;;;;;12.33;12.00;;;;;26.39;41.52;101276.84;110278;1265;18789;-47
2022/06/12 10:05:59;;;;;;;;;14.50;12.00;;;;;26.13;41.56;101274.57;110157;1264;19689;-47
2022/06/12 10:08:27;;;;;;;;;12.50;12.50;;;;;26.22;41.03;101267.90;110275;1264;18829;-48
2022/06/12 10:10:54;;;;;;;;;11.00;11.00;;;;;26.27;41.36;101267.36;110071;1264;28464;-48
2022/06/12 10:13:21;;;;;;;;;12.67;12.00;;;;;26.22;41.73;101265.76;110084;1264;21558;-48
2022/06/12 10:15:49;;;;;;;;;12.33;12.33;;;;;26.26;41.61;101262.77;110183;1265;19040;-47
2022/06/12 10:18:16;;;;;;;;;12.33;12.00;;;;;26.41;41.40;101255.64;110062;1265;18914;-50
2022/06/12 10:20:43;;;;;;;;;11.67;11.67;;;;;26.37;40.75;101255.06;110001;1264;19446;-47
2022/06/12 10:23:10;;;;;;;;;13.00;13.00;;;;;26.32;41.11;101253.55;110235;1264;19226;-48
2022/06/12 10:25:39;;;;;;;;;12.00;12.00;;;;;26.34;41.23;101255.39;110334;1265;18712;-49
2022/06/12 10:28:06;;;;;;;;;13.33;13.33;;;;;26.18;41.65;101254.10;110283;1264;19469;-49
2022/06/12 10:30:33;;;;;;;;;12.67;12.67;;;;;25.98;41.48;101253.77;110310;1264;18728;-50
2022/06/12 10:33:00;;;;;;;;;13.00;12.33;;;;;25.94;41.24;101253.27;110292;1265;19037;-48
2022/06/12 10:35:28;;;;;;;;;13.00;12.33;;;;;25.81;41.54;101251.79;110251;1265;19622;-47
2022/06/12 10:37:55;;;;;;;;;12.67;12.67;;;;;25.83;41.34;101251.38;110272;1264;18785;-49
2022/06/12 10:40:22;;;;;;;;;9.00;9.00;;;;;25.88;40.64;101249.52;110276;1264;18888;-47
2022/06/12 10:42:50;;;;;;;;;11.00;11.00;;;;;25.94;40.26;101240.91;110280;1265;22763;-48
2022/06/12 10:45:17;;;;;;;;;11.00;10.33;;;;;25.96;40.66;101241.23;110262;1264;20909;-48
2022/06/12 10:47:44;;;;;;;;;12.33;12.00;;;;;26.03;39.71;101239.23;110285;1264;18868;-47
2022/06/12 10:50:11;;;;;;;;;13.67;12.00;;;;;26.01;39.76;101232.85;110340;1265;19653;-46
2022/06/12 10:52:39;;;;;;;;;12.00;11.33;;;;;26.16;39.85;101225.30;110264;1264;18687;-47
2022/06/12 10:55:06;;;;;;;;;11.33;11.00;;;;;26.19;39.82;101226.80;110266;1265;18910;-48
2022/06/12 10:57:33;;;;;;;;;11.00;11.00;;;;;26.03;39.45;101219.98;110266;1264;19489;-47
2022/06/12 11:00:00;;;;;;;;;13.67;12.33;;;;;25.98;39.97;101220.09;110265;1265;18797;-48
2022/06/12 11:02:28;;;;;;;;;12.00;12.00;;;;;25.88;40.40;101217.57;110301;1264;18963;-48
2022/06/12 11:04:56;;;;;;;;;12.00;11.00;;;;;25.88;40.93;101221.55;110279;1265;19450;-47
2022/06/12 11:07:23;;;;;;;;;11.00;11.00;;;;;25.95;41.08;101217.17;110275;1264;23013;-48
2022/06/12 11:09:50;;;;;;;;;11.50;11.00;;;;;25.99;40.98;101217.02;110290;1264;18923;-48
2022/06/12 11:12:17;;;;;;;;;12.00;11.00;;;;;25.84;41.28;101217.63;110297;1264;19448;-48
2022/06/12 11:14:45;;;;;;;;;12.00;12.00;;;;;25.73;41.76;101217.86;110278;1264;19042;-48